Time;durP1;ratioP1;P1;durP2;ratioP2;P2;SDS_P1;SDS_P2;PMS_P1;PMS_P2;Temp;Humidity;BMP_temperature;BMP_pressure;BME280_temperature;BME280_humidity;BME280_pressure;Samples;Min_cycle;Max_cycle;Signal;HPM_P1;HPM_P2
2023/01/21 00:00:40;;;;;;;12.75;5.18;;;0.60;99.90;;;0.18;100.00;101697.75;5163403;28;20082;-66
2023/01/21 00:03:12;;;;;;;16.70;6.15;;;0.60;99.90;;;0.17;100.00;101707.88;5164449;28;20129;-65
2023/01/21 00:05:45;;;;;;;14.00;5.15;;;0.60;99.90;;;0.15;100.00;101707.75;5163855;28;20050;-65
2023/01/21 00:08:20;;;;;;;13.30;5.75;;;0.60;99.90;;;0.13;100.00;101711.84;5163992;28;20125;-65
2023/01/21 00:10:52;;;;;;;14.63;5.60;;;0.50;99.90;;;0.12;100.00;101721.94;5163896;28;20050;-65
2023/01/21 00:13:25;;;;;;;15.70;6.43;;;0.50;99.90;;;0.08;100.00;101718.22;5164078;28;20053;-65
2023/01/21 00:15:58;;;;;;;12.80;5.75;;;0.60;99.90;;;0.08;100.00;101715.66;5163753;28;20046;-63
2023/01/21 00:18:30;;;;;;;12.93;5.38;;;0.50;99.90;;;0.08;100.00;101731.03;5163750;28;20126;-64
2023/01/21 00:21:04;;;;;;;14.25;5.88;;;0.50;99.90;;;0.07;100.00;101736.03;5163819;28;20050;-65
2023/01/21 00:23:38;;;;;;;12.20;5.35;;;0.50;99.90;;;0.05;100.00;101743.56;5163995;28;20050;-64
2023/01/21 00:26:11;;;;;;;12.60;5.82;;;0.50;99.90;;;0.04;100.00;101744.31;5154362;28;20511;-65
2023/01/21 00:28:45;;;;;;;12.07;5.18;;;0.50;99.90;;;0.03;100.00;101745.09;5163400;28;20100;-65
2023/01/21 00:31:21;;;;;;;13.00;4.93;;;0.50;99.90;;;0.03;100.00;101746.75;5163584;28;20050;-65
2023/01/21 00:33:53;;;;;;;;;;;0.50;99.90;;;0.01;100.00;101746.63;5162757;28;20101;-65
2023/01/21 00:36:28;;;;;;;11.25;4.70;;;0.50;99.90;;;0.00;100.00;101757.63;5163583;28;19926;-65
2023/01/21 00:39:03;;;;;;;12.50;4.35;;;0.40;99.90;;;-0.02;100.00;101766.81;5163651;28;20500;-65
2023/01/21 00:41:36;;;;;;;11.27;5.10;;;0.40;99.90;;;-0.04;100.00;101764.13;5163711;28;20046;-64
2023/01/21 00:44:10;;;;;;;10.82;4.70;;;0.40;99.90;;;-0.08;100.00;101762.03;5163521;28;20446;-65
2023/01/21 00:46:42;;;;;;;13.00;5.25;;;0.40;99.90;;;-0.09;100.00;101767.03;5163318;28;20043;-65
2023/01/21 00:49:14;;;;;;;9.80;4.53;;;0.40;99.90;;;-0.11;100.00;101778.81;5163203;28;20050;-65
2023/01/21 00:51:47;;;;;;;12.95;5.10;;;0.40;99.90;;;-0.14;100.00;101770.81;5163285;28;20419;-65
2023/01/21 00:54:21;;;;;;;12.27;4.57;;;0.30;99.90;;;-0.18;100.00;101779.91;5163595;28;20677;-65
2023/01/21 00:56:53;;;;;;;11.65;5.55;;;0.30;99.90;;;-0.20;100.00;101785.63;5161919;28;20151;-64
2023/01/21 00:59:27;;;;;;;11.98;4.93;;;0.30;99.90;;;-0.22;100.00;101790.63;5163177;28;20563;-66
2023/01/21 01:01:59;;;;;;;10.25;4.68;;;0.20;99.90;;;-0.24;100.00;101791.25;5163379;28;20038;-65
2023/01/21 01:04:32;;;;;;;14.95;5.40;;;0.20;99.90;;;-0.27;100.00;101797.88;5163193;28;20042;-65
2023/01/21 01:07:04;;;;;;;11.85;5.07;;;0.20;99.90;;;-0.30;100.00;101800.16;5163056;28;20061;-65
2023/01/21 01:09:38;;;;;;;12.50;4.55;;;0.20;99.90;;;-0.36;100.00;101804.69;5162031;28;20050;-62
2023/01/21 01:12:12;;;;;;;10.73;4.40;;;0.10;99.90;;;-0.41;100.00;101810.16;5164527;28;20514;-65
2023/01/21 01:14:46;;;;;;;10.57;4.50;;;0.10;99.90;;;-0.46;100.00;101814.81;5166185;28;20191;-65
2023/01/21 01:17:19;;;;;;;15.25;4.78;;;0.00;99.90;;;-0.49;100.00;101814.53;5167160;28;20525;-65
2023/01/21 01:19:51;;;;;;;10.23;4.47;;;0.00;99.90;;;-0.50;100.00;101819.53;5166033;28;20050;-64
2023/01/21 01:22:26;;;;;;;10.05;3.97;;;0.00;99.90;;;-0.52;100.00;101829.66;5166008;28;20423;-64
2023/01/21 01:24:59;;;;;;;10.95;4.55;;;0.00;99.90;;;-0.53;100.00;101838.06;5167619;28;20053;-65
2023/01/21 01:27:32;;;;;;;9.93;4.28;;;-0.10;99.90;;;-0.55;100.00;101842.13;5166651;28;20046;-64
2023/01/21 01:30:05;;;;;;;10.40;3.92;;;-0.10;99.90;;;-0.57;100.00;101846.22;5167151;28;20061;-65
2023/01/21 01:32:38;;;;;;;11.15;3.88;;;-0.10;99.90;;;-0.58;100.00;101841.88;5182343;28;20570;-65
2023/01/21 01:35:11;;;;;;;9.95;4.20;;;-0.10;99.90;;;-0.61;100.00;101849.25;5167437;28;20502;-65
2023/01/21 01:37:43;;;;;;;10.00;3.97;;;-0.10;99.90;;;-0.64;100.00;101854.06;5166989;28;20042;-65
2023/01/21 01:40:18;;;;;;;9.88;4.32;;;-0.20;99.90;;;-0.66;100.00;101870.94;5166775;28;20050;-65
2023/01/21 01:42:50;;;;;;;10.45;4.00;;;-0.20;99.90;;;-0.69;100.00;101874.13;5181699;28;20084;-64
2023/01/21 01:45:22;;;;;;;12.45;4.55;;;-0.20;99.90;;;-0.74;100.00;101876.97;5166826;28;20081;-64
2023/01/21 01:48:01;;;;;;;12.00;4.63;;;-0.30;99.90;;;-0.75;100.00;101880.31;5165311;28;20594;-64
2023/01/21 01:50:37;;;;;;;9.98;4.13;;;-0.30;99.90;;;-0.76;100.00;101883.63;5166582;28;20058;-65
2023/01/21 01:53:11;;;;;;;8.85;4.00;;;-0.30;99.90;;;-0.80;100.00;101887.53;5166650;28;20101;-65
2023/01/21 01:55:47;;;;;;;9.90;4.00;;;-0.30;99.90;;;-0.80;100.00;101891.75;5165418;28;20511;-65
2023/01/21 01:58:24;;;;;;;11.50;4.78;;;-0.30;99.90;;;-0.82;100.00;101892.50;5166302;28;20050;-65
2023/01/21 02:00:56;;;;;;;11.25;4.20;;;-0.30;99.90;;;-0.83;100.00;101890.72;5166451;28;20826;-65
2023/01/21 02:03:44;;;;;;;11.32;4.15;;;-0.30;99.90;;;-0.84;100.00;101894.03;5181651;28;20100;-65
2023/01/21 02:06:18;;;;;;;8.75;4.32;;;-0.30;99.90;;;-0.85;100.00;101905.03;5165224;28;20064;-65
2023/01/21 02:08:52;;;;;;;9.60;4.00;;;-0.40;99.90;;;-0.87;100.00;101903.94;5181020;28;20555;-65
2023/01/21 02:11:26;;;;;;;11.68;4.38;;;-0.40;99.90;;;-0.88;100.00;101907.28;5166494;28;20522;-64
2023/01/21 02:14:00;;;;;;;12.73;4.20;;;-0.40;99.90;;;-0.90;100.00;101913.91;5166057;28;20065;-65
2023/01/21 02:17:03;;;;;;;11.68;4.03;;;-0.40;99.90;;;-0.92;100.00;101915.38;5166173;28;20044;-64
2023/01/21 02:20:15;;;;;;;11.50;4.38;;;-0.40;99.90;;;-0.95;100.00;101925.34;5166071;28;20046;-65
2023/01/21 02:22:56;;;;;;;10.80;3.92;;;-0.50;99.90;;;-0.99;100.00;101923.22;5133848;28;20068;-65
2023/01/21 02:26:39;;;;;;;12.82;4.43;;;-0.50;99.90;;;-1.02;100.00;101934.84;5165804;28;20050;-63
2023/01/21 02:29:58;;;;;;;11.32;3.80;;;-0.50;99.90;;;-1.06;100.00;101925.94;5147722;28;20054;-65
2023/01/21 02:33:36;;;;;;;11.70;4.18;;;-0.60;99.90;;;-1.08;100.00;101934.22;5161129;28;20054;-65
2023/01/21 02:36:30;;;;;;;9.20;3.28;;;-0.60;99.90;;;-1.13;100.00;101933.75;5165990;28;20129;-63
2023/01/21 02:39:14;;;;;;;13.70;4.55;;;-0.60;99.90;;;-1.16;100.00;101944.59;5165978;28;20049;-62
2023/01/21 02:42:04;;;;;;;14.02;4.75;;;-0.70;99.90;;;-1.18;100.00;101950.31;5165599;28;20080;-65
2023/01/21 02:44:40;;;;;;;9.93;4.18;;;-0.70;99.90;;;-1.20;100.00;101962.06;5165741;28;20050;-65
2023/01/21 02:47:23;;;;;;;9.90;4.68;;;-0.70;99.90;;;-1.22;100.00;101963.56;5165473;28;20057;-65
2023/01/21 02:50:03;;;;;;;12.43;4.97;;;-0.70;99.90;;;-1.24;100.00;101957.38;5165699;28;20050;-63
2023/01/21 02:52:36;;;;;;;11.02;4.68;;;-0.70;99.90;;;-1.25;100.00;101958.13;5180392;28;20539;-65
2023/01/21 02:55:15;;;;;;;14.32;4.82;;;-0.70;99.90;;;-1.25;100.00;101958.13;5165858;28;20046;-65
2023/01/21 02:57:50;;;;;;;9.38;3.85;;;-0.70;99.90;;;-1.22;100.00;101959.34;5163777;28;20046;-65
2023/01/21 03:00:30;;;;;;;10.05;3.67;;;-0.70;99.90;;;-1.19;100.00;101953.63;5165247;28;20053;-65
2023/01/21 03:03:33;;;;;;;12.65;5.13;;;-0.70;99.90;;;-1.16;100.00;101959.06;5180389;28;20470;-65
2023/01/21 03:06:41;;;;;;;11.48;4.03;;;-0.70;99.90;;;-1.16;100.00;101962.53;5165494;28;20054;-65
2023/01/21 03:09:22;;;;;;;12.57;4.72;;;-0.70;99.90;;;-1.17;100.00;101962.38;5165112;28;20046;-65
2023/01/21 03:12:08;;;;;;;11.55;4.38;;;-0.70;99.90;;;-1.19;100.00;101969.88;5165254;28;20518;-65
2023/01/21 03:17:43;;;;;;;12.25;4.43;;;-0.70;99.90;;;-1.23;100.00;101964.31;5165079;28;20053;-65
2023/01/21 03:20:20;;;;;;;12.13;4.50;;;-0.70;99.90;;;-1.22;100.00;101977.25;5165395;28;20053;-64
2023/01/21 03:23:01;;;;;;;15.18;5.15;;;-0.70;99.90;;;-1.24;100.00;101975.28;5165242;28;20074;-65
2023/01/21 03:25:35;;;;;;;11.05;3.97;;;-0.70;99.90;;;-1.24;100.00;101978.78;5165234;28;20056;-65
2023/01/21 03:28:12;;;;;;;8.15;3.97;;;-0.70;99.90;;;-1.25;100.00;101976.03;5163359;28;20078;-65
2023/01/21 03:30:50;;;;;;;8.85;4.25;;;-0.70;99.90;;;-1.21;100.00;101985.84;5164531;28;20050;-65
2023/01/21 03:33:23;;;;;;;7.25;2.83;;;-0.70;99.90;;;-1.21;100.00;101991.84;5180155;28;20414;-65
2023/01/21 03:35:58;;;;;;;8.88;3.83;;;-0.70;99.90;;;-1.21;100.00;101990.94;5164813;28;20380;-65
2023/01/21 03:38:36;;;;;;;9.45;3.42;;;-0.70;99.90;;;-1.26;100.00;101993.03;5164418;28;20771;-65
2023/01/21 03:41:16;;;;;;;9.95;3.40;;;-0.70;99.90;;;-1.28;100.00;101996.22;5180034;28;20100;-65
2023/01/21 03:43:48;;;;;;;10.30;2.90;;;-0.70;99.90;;;-1.31;100.00;101996.78;5164538;28;20052;-63
2023/01/21 03:46:25;;;;;;;10.20;3.67;;;-0.80;99.90;;;-1.33;100.00;102000.84;5179601;28;20062;-65
2023/01/21 03:49:02;;;;;;;7.03;2.80;;;-0.80;99.90;;;-1.33;100.00;101994.84;5164044;28;20073;-65
2023/01/21 03:51:39;;;;;;;5.45;2.80;;;-0.80;99.90;;;-1.31;100.00;102003.56;5164428;28;20046;-64
2023/01/21 03:54:14;;;;;;;7.80;3.10;;;-0.80;99.90;;;-1.34;100.00;102003.25;5164263;28;20617;-65
2023/01/21 03:56:46;;;;;;;8.10;3.17;;;-0.80;99.90;;;-1.36;100.00;102005.66;5164655;28;20130;-65
2023/01/21 03:59:18;;;;;;;10.00;3.92;;;-0.80;99.90;;;-1.39;100.00;102005.34;5163113;28;20054;-65
2023/01/21 04:01:50;;;;;;;8.27;3.38;;;-0.90;99.90;;;-1.43;100.00;102009.25;5162948;28;20097;-65
2023/01/21 04:04:23;;;;;;;7.15;2.80;;;-0.90;99.90;;;-1.45;100.00;102010.75;5162790;28;20042;-65
2023/01/21 04:06:55;;;;;;;7.00;3.08;;;-0.90;99.90;;;-1.46;100.00;102008.94;5179348;28;20054;-65
2023/01/21 04:09:29;;;;;;;8.07;3.08;;;-0.90;99.90;;;-1.49;100.00;102013.75;5164082;28;20042;-65
2023/01/21 04:12:01;;;;;;;7.70;2.88;;;-1.00;99.90;;;-1.50;100.00;102018.69;5163838;28;20046;-65
2023/01/21 04:14:33;;;;;;;8.32;3.28;;;-1.00;99.90;;;-1.52;100.00;102023.66;5163955;28;20411;-65
2023/01/21 04:17:05;;;;;;;10.02;3.33;;;-1.00;99.90;;;-1.54;100.00;102020.03;5163805;28;20422;-65
2023/01/21 04:19:37;;;;;;;7.72;3.22;;;-1.00;99.90;;;-1.58;100.00;102017.91;5164184;28;20043;-65
2023/01/21 04:22:09;;;;;;;10.82;3.67;;;-1.00;99.90;;;-1.60;100.00;102023.63;5163885;28;20043;-65
2023/01/21 04:24:42;;;;;;;10.15;4.25;;;-1.10;99.90;;;-1.65;100.00;102020.59;5163715;28;20413;-65
2023/01/21 04:27:15;;;;;;;8.10;3.47;;;-1.10;99.90;;;-1.66;100.00;102036.69;5163765;28;20042;-65
2023/01/21 04:29:47;;;;;;;13.13;4.07;;;-1.10;99.90;;;-1.70;100.00;102042.22;5163551;28;20407;-65
2023/01/21 04:32:19;;;;;;;9.52;2.95;;;-1.20;99.90;;;-1.73;100.00;102041.91;5163918;28;20521;-65
2023/01/21 04:34:51;;;;;;;11.27;3.90;;;-1.20;99.90;;;-1.76;100.00;102041.59;5163724;28;20054;-65
2023/01/21 04:37:23;;;;;;;8.50;3.03;;;-1.20;99.90;;;-1.78;100.00;102043.09;5163668;28;20046;-65
2023/01/21 04:39:56;;;;;;;9.45;3.92;;;-1.20;99.90;;;-1.80;100.00;102045.50;5162643;28;20043;-65
2023/01/21 04:42:29;;;;;;;9.32;3.83;;;-1.30;99.90;;;-1.82;100.00;102054.66;5163860;28;20046;-65
2023/01/21 04:45:01;;;;;;;7.45;3.22;;;-1.30;99.90;;;-1.85;100.00;102056.88;5163605;28;20089;-64
2023/01/21 04:47:34;;;;;;;7.75;2.92;;;-1.30;99.90;;;-1.86;100.00;102065.31;5162863;28;20419;-65
2023/01/21 04:50:06;;;;;;;8.93;3.65;;;-1.30;99.90;;;-1.88;100.00;102063.34;5176974;23;20042;-69
2023/01/21 04:52:39;;;;;;;7.65;3.55;;;-1.30;99.90;;;-1.92;100.00;102063.00;5148225;28;20125;-69
2023/01/21 04:55:13;;;;;;;8.75;3.42;;;-1.40;99.90;;;-1.93;100.00;102084.22;5157796;28;20507;-69
2023/01/21 04:57:45;;;;;;;7.40;3.28;;;-1.40;99.90;;;-1.96;100.00;102073.69;5155408;28;20051;-69
2023/01/21 05:00:18;;;;;;;7.55;2.97;;;-1.40;99.90;;;-1.95;100.00;102085.72;5143259;28;20045;-69
2023/01/21 05:02:50;;;;;;;8.63;3.45;;;-1.40;99.90;;;-1.96;100.00;102081.34;5143585;28;20043;-69
2023/01/21 05:05:22;;;;;;;7.85;2.97;;;-1.40;99.90;;;-1.97;100.00;102089.72;5143694;28;20043;-69
2023/01/21 05:07:54;;;;;;;7.07;3.35;;;-1.40;99.90;;;-1.99;100.00;102096.34;5143358;28;20047;-69
2023/01/21 05:10:28;;;;;;;8.88;3.50;;;-1.40;99.90;;;-1.99;100.00;102087.78;5142915;28;20045;-68
2023/01/21 05:13:00;;;;;;;10.60;4.03;;;-1.50;99.90;;;-2.02;100.00;102098.59;5143548;28;20066;-69
2023/01/21 05:15:32;;;;;;;7.75;3.30;;;-1.50;99.90;;;-2.04;100.00;102100.06;5143645;28;20043;-69
2023/01/21 05:18:04;;;;;;;8.50;3.17;;;-1.50;99.90;;;-2.04;100.00;102102.59;5143310;28;20546;-69
2023/01/21 05:20:36;;;;;;;10.55;4.13;;;-1.50;99.90;;;-2.05;100.00;102093.13;5142874;28;20043;-69
2023/01/21 05:23:09;;;;;;;8.70;3.40;;;-1.50;99.90;;;-2.05;100.00;102102.47;5142200;28;20043;-69
2023/01/21 05:25:42;;;;;;;12.40;4.60;;;-1.50;99.90;;;-2.08;100.00;102097.94;5143398;28;20320;-69
2023/01/21 05:28:14;;;;;;;11.52;4.20;;;-1.50;99.90;;;-2.10;100.00;102099.41;5143218;28;20538;-69
2023/01/21 05:30:46;;;;;;;11.23;4.30;;;-1.50;99.90;;;-2.09;100.00;102105.41;5141525;28;20054;-69
2023/01/21 05:33:22;;;;;;;12.63;4.22;;;-1.60;99.90;;;-2.09;100.00;102107.97;5141880;28;20055;-69
2023/01/21 05:35:54;;;;;;;9.93;4.10;;;-1.60;99.90;;;-2.08;100.00;102108.16;5142741;28;20056;-70
2023/01/21 05:38:27;;;;;;;8.77;3.60;;;-1.50;99.90;;;-2.07;100.00;102120.19;5123045;28;20043;-69
2023/01/21 05:41:02;;;;;;;11.13;3.75;;;-1.50;99.90;;;-2.08;100.00;102123.50;5122805;29;20047;-69
2023/01/21 05:43:34;;;;;;;8.50;3.97;;;-1.50;99.90;;;-2.09;100.00;102126.75;5122976;29;20047;-69
2023/01/21 05:46:06;;;;;;;10.00;3.95;;;-1.50;99.90;;;-2.13;100.00;102132.31;5123138;29;20039;-69
2023/01/21 05:48:38;;;;;;;9.85;4.15;;;-1.60;99.90;;;-2.16;100.00;102133.63;5122975;28;20043;-69
2023/01/21 05:51:10;;;;;;;9.45;3.80;;;-1.60;99.90;;;-2.21;100.00;102130.59;5122602;29;20419;-69
2023/01/21 05:53:43;;;;;;;10.50;3.50;;;-1.60;99.90;;;-2.22;100.00;102138.97;5123030;29;20051;-69
2023/01/21 05:56:16;;;;;;;7.97;3.75;;;-1.70;99.90;;;-2.25;100.00;102138.66;5122985;29;20126;-69
2023/01/21 05:58:48;;;;;;;10.52;3.75;;;-1.70;99.90;;;-2.26;100.00;102147.06;5123579;28;20047;-69
2023/01/21 06:01:20;;;;;;;8.38;3.67;;;-1.70;99.90;;;-2.28;100.00;102143.47;5126605;29;20047;-69
2023/01/21 06:03:52;;;;;;;10.38;3.97;;;-1.70;99.90;;;-2.31;100.00;102146.56;5141553;28;20051;-69
2023/01/21 06:06:24;;;;;;;9.95;4.13;;;-1.70;99.90;;;-2.32;100.00;102146.41;5125152;29;20126;-69
2023/01/21 06:08:57;;;;;;;11.52;4.03;;;-1.80;99.90;;;-2.32;100.00;102148.97;5126218;28;20134;-69
2023/01/21 06:11:31;;;;;;;9.23;3.53;;;-1.80;99.90;;;-2.34;100.00;102163.25;5126389;29;20074;-69
2023/01/21 06:14:03;;;;;;;9.10;3.47;;;-1.70;99.90;;;-2.37;100.00;102163.78;5126386;29;20105;-69
2023/01/21 06:16:35;;;;;;;9.40;3.40;;;-1.80;99.90;;;-2.39;100.00;102165.28;5126438;29;20047;-69
2023/01/21 06:19:07;;;;;;;12.50;4.65;;;-1.80;99.90;;;-2.41;100.00;102171.88;5125852;28;20042;-69
2023/01/21 06:21:39;;;;;;;11.30;3.65;;;-1.80;99.90;;;-2.43;100.00;102175.00;5126268;29;20047;-69
2023/01/21 06:24:11;;;;;;;10.85;4.03;;;-1.90;99.90;;;-2.46;100.00;102175.59;5126276;29;20043;-69
2023/01/21 06:26:45;;;;;;;13.25;4.55;;;-1.90;99.90;;;-2.47;100.00;102177.22;5141150;28;20066;-69
2023/01/21 06:29:17;;;;;;;11.05;3.40;;;-1.90;99.90;;;-2.46;100.00;102179.03;5125511;29;20047;-69
2023/01/21 06:31:49;;;;;;;9.57;4.25;;;-1.90;99.90;;;-2.44;100.00;102185.97;5126030;29;20047;-69
2023/01/21 06:34:21;;;;;;;10.25;4.03;;;-1.90;99.90;;;-2.42;100.00;102194.69;5126089;29;20054;-69
2023/01/21 06:36:53;;;;;;;11.30;4.25;;;-1.90;99.90;;;-2.43;100.00;102195.44;5125936;28;20126;-69
2023/01/21 06:39:25;;;;;;;9.93;3.83;;;-1.90;99.90;;;-2.43;100.00;102196.34;5125574;29;20496;-69
2023/01/21 06:41:59;;;;;;;8.45;3.47;;;-1.90;99.90;;;-2.43;100.00;102198.88;5125916;29;20130;-69
2023/01/21 06:44:31;;;;;;;10.20;3.75;;;-1.80;99.90;;;-2.43;100.00;102211.66;5125973;28;20050;-69
2023/01/21 06:47:03;;;;;;;10.65;3.70;;;-1.90;99.90;;;-2.43;100.00;102213.31;5125961;28;20218;-69
2023/01/21 06:49:35;;;;;;;13.32;5.47;;;-1.80;99.90;;;-2.47;100.00;102213.00;5125262;29;20119;-69
2023/01/21 06:52:07;;;;;;;8.82;3.95;;;-1.90;99.90;;;-2.47;100.00;102229.97;5125727;29;20101;-69
2023/01/21 06:54:39;;;;;;;12.45;3.58;;;-1.90;99.90;;;-2.50;100.00;102222.84;5125811;29;20047;-69
2023/01/21 06:57:13;;;;;;;8.02;3.58;;;-1.90;99.90;;;-2.51;100.00;102223.59;5125803;28;20543;-69
2023/01/21 06:59:45;;;;;;;9.63;3.88;;;-1.90;99.90;;;-2.55;100.00;102223.09;5125240;29;20507;-69
2023/01/21 07:02:17;;;;;;;9.05;3.25;;;-2.00;99.90;;;-2.57;100.00;102219.47;5125714;29;20043;-68
2023/01/21 07:04:50;;;;;;;11.27;3.22;;;-2.00;99.90;;;-2.59;100.00;102214.19;5124904;29;20054;-61
2023/01/21 07:07:22;;;;;;;8.55;3.25;;;-2.00;99.90;;;-2.61;100.00;102225.91;5125039;28;20150;-60
2023/01/21 07:09:54;;;;;;;9.93;3.63;;;-2.00;99.90;;;-2.63;100.00;102229.91;5124349;28;20280;-61
2023/01/21 07:12:27;;;;;;;9.57;3.67;;;-2.00;99.90;;;-2.65;100.00;102226.28;5124913;29;20047;-61
2023/01/21 07:14:59;;;;;;;8.50;3.63;;;-2.10;99.90;;;-2.65;100.00;102239.06;5125131;29;20051;-60
2023/01/21 07:17:32;;;;;;;10.23;3.30;;;-2.10;99.90;;;-2.67;100.00;102232.88;5124529;28;20131;-60
2023/01/21 07:20:05;;;;;;;9.57;4.18;;;-2.10;99.90;;;-2.68;100.00;102243.81;5123984;29;20054;-61
2023/01/21 07:22:37;;;;;;;8.30;3.35;;;-2.10;99.90;;;-2.68;100.00;102240.34;5124507;29;20135;-61
2023/01/21 07:25:10;;;;;;;11.20;3.70;;;-2.10;99.90;;;-2.66;100.00;102246.56;5124619;29;20135;-62
2023/01/21 07:27:43;;;;;;;10.50;3.58;;;-2.10;99.90;;;-2.65;100.00;102256.94;5124373;28;20058;-61
2023/01/21 07:30:18;;;;;;;8.95;3.80;;;-2.10;99.90;;;-2.64;100.00;102252.72;5124120;29;20047;-63
2023/01/21 07:32:50;;;;;;;7.40;3.10;;;-2.10;99.90;;;-2.66;100.00;102255.13;5124528;28;20049;-61
2023/01/21 07:35:22;;;;;;;10.57;4.13;;;-2.10;99.90;;;-2.68;100.00;102254.03;5124364;29;20043;-61
2023/01/21 07:37:54;;;;;;;10.43;3.70;;;-2.10;99.90;;;-2.69;100.00;102249.66;5124279;28;20054;-60
2023/01/21 07:40:27;;;;;;;12.50;4.70;;;-2.10;99.90;;;-2.69;100.00;102257.31;5123713;29;20461;-60
2023/01/21 07:43:00;;;;;;;12.85;4.30;;;-2.10;99.90;;;-2.69;100.00;102257.31;5124109;29;20050;-60
2023/01/21 07:45:32;;;;;;;9.95;3.95;;;-2.10;99.90;;;-2.68;100.00;102266.78;5123037;29;20055;-62
2023/01/21 07:48:06;;;;;;;12.07;4.00;;;-2.10;99.90;;;-2.63;100.00;102260.53;5124036;28;20055;-62
2023/01/21 07:50:38;;;;;;;10.85;4.68;;;-2.10;99.90;;;-2.56;100.00;102263.03;5122021;28;20417;-60
2023/01/21 07:53:12;;;;;;;10.05;4.10;;;-2.00;99.90;;;-2.52;100.00;102272.84;5124228;29;20047;-62
2023/01/21 07:55:44;;;;;;;13.48;4.70;;;-1.90;99.90;;;-2.49;100.00;102274.81;5123926;29;20054;-60
2023/01/21 07:58:17;;;;;;;11.15;4.95;;;-2.00;99.90;;;-2.48;100.00;102276.63;5123890;28;20054;-60
2023/01/21 08:00:49;;;;;;;13.73;5.22;;;-1.90;99.90;;;-2.49;100.00;102273.19;5123758;28;20090;-61
2023/01/21 08:03:23;;;;;;;11.32;4.90;;;-1.90;99.90;;;-2.50;100.00;102286.69;5123880;29;20050;-62
2023/01/21 08:05:55;;;;;;;12.10;4.95;;;-1.90;99.90;;;-2.52;100.00;102294.94;5123741;28;20090;-62
2023/01/21 08:08:27;;;;;;;14.93;5.18;;;-1.90;99.90;;;-2.52;100.00;102297.50;5123997;28;20507;-61
2023/01/21 08:11:00;;;;;;;12.95;6.13;;;-1.90;99.90;;;-2.53;100.00;102306.78;5124343;28;20079;-61
2023/01/21 08:13:33;;;;;;;17.40;5.75;;;-2.00;99.90;;;-2.50;100.00;102314.78;5138762;28;20058;-61
2023/01/21 08:16:10;;;;;;;14.75;5.65;;;-2.00;99.90;;;-2.47;100.00;102304.03;5094108;28;20063;-60
2023/01/21 08:18:42;;;;;;;14.73;5.88;;;-1.90;99.90;;;-2.43;100.00;102308.72;5123293;28;20094;-61
2023/01/21 08:21:14;;;;;;;17.52;7.18;;;-1.90;99.90;;;-2.39;100.00;102310.88;5122687;28;20245;-61
2023/01/21 08:23:46;;;;;;;17.23;7.13;;;-1.80;99.90;;;-2.34;100.00;102308.84;5123862;28;20043;-61
2023/01/21 08:26:18;;;;;;;17.17;5.95;;;-1.80;99.90;;;-2.29;100.00;102307.66;5123430;28;20043;-61
2023/01/21 08:28:53;;;;;;;19.25;5.95;;;-1.70;99.90;;;-2.22;100.00;102312.69;5123284;28;20060;-61
2023/01/21 08:31:25;;;;;;;15.40;6.55;;;-1.60;99.90;;;-2.16;100.00;102315.94;5142392;28;20046;-61
2023/01/21 08:33:59;;;;;;;12.52;5.75;;;-1.60;99.90;;;-2.10;100.00;102321.72;5142018;28;20051;-61
2023/01/21 08:36:31;;;;;;;12.30;5.13;;;-1.60;99.90;;;-2.05;100.00;102323.13;5143325;28;20042;-60
2023/01/21 08:39:04;;;;;;;16.88;5.63;;;-1.50;99.90;;;-2.01;100.00;102325.28;5142844;28;20047;-61
2023/01/21 08:41:39;;;;;;;12.27;4.88;;;-1.50;99.90;;;-1.93;100.00;102323.56;5143170;28;20039;-62
2023/01/21 08:44:12;;;;;;;15.85;5.35;;;-1.40;99.90;;;-1.86;100.00;102330.25;5143411;28;20377;-61
2023/01/21 08:46:44;;;;;;;15.90;5.88;;;-1.30;99.90;;;-1.81;100.00;102326.53;5143064;28;20416;-60
2023/01/21 08:49:16;;;;;;;14.35;5.95;;;-1.30;99.90;;;-1.75;100.00;102324.66;5142263;28;20054;-61
2023/01/21 08:51:49;;;;;;;12.63;5.18;;;-1.20;99.90;;;-1.71;100.00;102337.00;5142897;28;20133;-61
2023/01/21 08:54:21;;;;;;;16.25;5.80;;;-1.20;99.90;;;-1.69;100.00;102336.44;5143140;28;20038;-61
2023/01/21 08:56:53;;;;;;;11.35;4.88;;;-1.20;99.90;;;-1.66;100.00;102331.66;5143070;28;20047;-61
2023/01/21 08:59:27;;;;;;;12.05;5.78;;;-1.10;99.90;;;-1.61;100.00;102341.47;5142432;28;20505;-61
2023/01/21 09:01:59;;;;;;;13.63;5.47;;;-1.10;99.90;;;-1.56;100.00;102342.88;5143208;28;20043;-61
2023/01/21 09:04:31;;;;;;;10.60;4.88;;;-1.00;99.90;;;-1.16;100.00;102343.84;5142947;28;20523;-61
2023/01/21 09:07:03;;;;;;;12.30;4.55;;;-0.70;99.90;;;-0.13;100.00;102351.91;5142882;28;20054;-60
2023/01/21 09:09:35;;;;;;;10.98;4.00;;;0.40;99.90;;;-0.15;100.00;102353.44;5142270;28;20073;-62
2023/01/21 09:12:08;;;;;;;11.73;4.82;;;0.40;99.90;;;-0.36;100.00;102363.28;5143376;28;20049;-60
2023/01/21 09:14:41;;;;;;;13.60;4.97;;;0.30;99.90;;;-0.49;100.00;102384.94;5143329;28;20058;-59
2023/01/21 09:17:14;;;;;;;15.82;5.72;;;0.10;99.90;;;-0.60;100.00;102376.13;5142724;28;20515;-60
2023/01/21 09:19:46;;;;;;;13.50;5.63;;;0.00;99.90;;;-0.65;100.00;102367.97;5142422;28;20043;-60
2023/01/21 09:22:18;;;;;;;13.45;5.60;;;-0.10;99.90;;;-0.66;100.00;102371.25;5143278;28;20055;-60
2023/01/21 09:24:50;;;;;;;16.10;6.45;;;-0.10;99.90;;;-0.61;100.00;102371.75;5141611;28;20045;-61
2023/01/21 09:27:26;;;;;;;13.40;6.25;;;-0.10;99.90;;;-0.58;100.00;102370.44;5138392;28;20043;-61
2023/01/21 09:29:59;;;;;;;16.90;7.03;;;-0.10;99.90;;;-0.50;100.00;102373.78;5142049;28;20093;-61
2023/01/21 09:32:31;;;;;;;16.20;6.25;;;0.00;99.90;;;-0.37;100.00;102376.88;5136665;28;20043;-60
2023/01/21 09:35:04;;;;;;;17.75;6.95;;;0.00;99.90;;;-0.23;100.00;102374.81;5143748;28;20688;-60
2023/01/21 09:37:37;;;;;;;19.80;7.68;;;0.20;99.90;;;-0.11;100.00;102374.41;5128162;28;20104;-61
2023/01/21 09:40:16;;;;;;;18.80;6.35;;;0.30;99.90;;;0.05;100.00;102384.56;5144732;28;20145;-62
2023/01/21 09:42:48;;;;;;;13.32;5.45;;;0.40;99.90;;;0.22;100.00;102388.84;5145109;28;20042;-61
2023/01/21 09:45:22;;;;;;;18.17;6.40;;;0.60;99.90;;;0.39;100.00;102387.97;5135160;28;20043;-60
2023/01/21 09:47:56;;;;;;;18.45;6.63;;;0.70;99.90;;;0.52;100.00;102391.94;5142507;28;20543;-59
2023/01/21 09:50:30;;;;;;;17.02;7.05;;;0.80;99.90;;;0.61;100.00;102393.63;5134461;28;20048;-61
2023/01/21 09:53:23;;;;;;;14.98;5.40;;;1.00;99.90;;;0.75;100.00;102390.75;5123865;28;20118;-61
2023/01/21 09:55:57;;;;;;;17.52;6.82;;;1.10;99.90;;;0.92;100.00;102395.91;5123370;28;20050;-61
2023/01/21 09:58:38;;;;;;;15.02;6.28;;;1.30;99.90;;;1.04;100.00;102402.25;5124284;28;20047;-60
2023/01/21 10:01:18;;;;;;;14.80;5.68;;;1.40;99.90;;;1.21;100.00;102400.41;5138797;28;20042;-60
2023/01/21 10:03:55;;;;;;;16.90;5.88;;;1.50;99.90;;;1.48;100.00;102404.75;5124182;28;20047;-61
2023/01/21 10:06:35;;;;;;;13.43;5.68;;;1.70;99.90;;;1.70;100.00;102408.63;5125521;28;20043;-60
2023/01/21 10:09:36;;;;;;;14.85;5.97;;;1.90;99.90;;;1.68;100.00;102406.66;5140399;28;20055;-61
2023/01/21 10:12:38;;;;;;;17.35;6.18;;;2.00;99.90;;;1.59;100.00;102415.31;5126201;28;20096;-60
2023/01/21 10:15:34;;;;;;;12.68;5.47;;;1.90;99.90;;;1.54;100.00;102415.63;5125622;28;20052;-60
2023/01/21 10:18:11;;;;;;;15.38;5.85;;;1.90;99.90;;;1.50;100.00;102421.22;5125742;28;20745;-61
2023/01/21 10:20:50;;;;;;;19.60;6.68;;;1.80;99.90;;;1.44;100.00;102421.56;5125398;28;20069;-60
2023/01/21 10:23:27;;;;;;;18.13;7.00;;;1.80;99.90;;;1.43;100.00;102419.72;5125761;28;20039;-60
2023/01/21 10:26:06;;;;;;;16.38;6.55;;;1.80;99.90;;;1.42;100.00;102428.19;5140890;28;20040;-61
2023/01/21 10:28:41;;;;;;;16.35;6.70;;;1.80;99.90;;;1.36;100.00;102423.34;5125647;28;20051;-62
2023/01/21 10:31:21;;;;;;;17.58;6.57;;;1.70;99.90;;;1.30;100.00;102417.66;5125038;28;20051;-61
2023/01/21 10:33:55;;;;;;;16.27;6.45;;;1.70;99.90;;;1.30;100.00;102417.66;5124362;29;20047;-62
2023/01/21 10:36:57;;;;;;;17.88;6.63;;;1.70;99.90;;;1.34;100.00;102424.88;5125657;28;20047;-62
2023/01/21 10:39:43;;;;;;;17.00;6.65;;;1.70;99.90;;;1.35;100.00;102428.34;5125046;28;20496;-62
2023/01/21 10:42:34;;;;;;;16.60;6.85;;;1.70;99.90;;;1.35;100.00;102429.25;5125518;28;20043;-62